sensor_id;sensor_type;location;lat;lon;timestamp;temperature;humidity
53146;DHT22;39042;53.150;5.898;2023-06-10T00:01:59;15.40;99.90
53146;DHT22;39042;53.150;5.898;2023-06-10T00:04:26;15.30;99.90
53146;DHT22;39042;53.150;5.898;2023-06-10T00:06:52;15.30;99.90
53146;DHT22;39042;53.150;5.898;2023-06-10T00:09:19;15.30;99.90
53146;DHT22;39042;53.150;5.898;2023-06-10T00:11:47;15.30;99.90
53146;DHT22;39042;53.150;5.898;2023-06-10T00:14:13;15.20;99.90
53146;DHT22;39042;53.150;5.898;2023-06-10T00:16:39;15.20;99.90
53146;DHT22;39042;53.150;5.898;2023-06-10T00:19:05;15.20;99.90
53146;DHT22;39042;53.150;5.898;2023-06-10T00:21:33;15.20;99.90
53146;DHT22;39042;53.150;5.898;2023-06-10T00:24:11;15.10;99.90
53146;DHT22;39042;53.150;5.898;2023-06-10T00:26:41;15.10;99.90
53146;DHT22;39042;53.150;5.898;2023-06-10T00:29:07;15.10;99.90
53146;DHT22;39042;53.150;5.898;2023-06-10T00:31:37;15.10;99.90
53146;DHT22;39042;53.150;5.898;2023-06-10T00:34:07;15.00;99.90
53146;DHT22;39042;53.150;5.898;2023-06-10T00:36:33;15.00;99.90
53146;DHT22;39042;53.150;5.898;2023-06-10T00:38:59;15.00;99.90
53146;DHT22;39042;53.150;5.898;2023-06-10T00:41:25;15.00;99.90
53146;DHT22;39042;53.150;5.898;2023-06-10T00:43:52;15.00;99.90
53146;DHT22;39042;53.150;5.898;2023-06-10T00:46:18;15.00;99.90
53146;DHT22;39042;53.150;5.898;2023-06-10T00:48:45;15.00;99.90
53146;DHT22;39042;53.150;5.898;2023-06-10T00:51:11;14.90;99.90
53146;DHT22;39042;53.150;5.898;2023-06-10T00:53:40;14.90;99.90
53146;DHT22;39042;53.150;5.898;2023-06-10T00:56:06;14.90;99.90
53146;DHT22;39042;53.150;5.898;2023-06-10T00:58:35;14.90;99.90
53146;DHT22;39042;53.150;5.898;2023-06-10T01:01:01;14.90;99.90
53146;DHT22;39042;53.150;5.898;2023-06-10T01:03:27;14.90;99.90
53146;DHT22;39042;53.150;5.898;2023-06-10T01:06:33;14.90;99.90
53146;DHT22;39042;53.150;5.898;2023-06-10T01:09:34;14.80;99.90
53146;DHT22;39042;53.150;5.898;2023-06-10T01:11:59;14.80;99.90
53146;DHT22;39042;53.150;5.898;2023-06-10T01:14:27;14.80;99.90
53146;DHT22;39042;53.150;5.898;2023-06-10T01:16:54;14.80;99.90
53146;DHT22;39042;53.150;5.898;2023-06-10T01:19:21;14.80;99.90
53146;DHT22;39042;53.150;5.898;2023-06-10T01:21:51;14.80;99.90
53146;DHT22;39042;53.150;5.898;2023-06-10T01:24:18;14.80;99.90
53146;DHT22;39042;53.150;5.898;2023-06-10T01:26:45;14.80;99.90
53146;DHT22;39042;53.150;5.898;2023-06-10T01:29:20;14.80;99.90
53146;DHT22;39042;53.150;5.898;2023-06-10T01:31:54;14.70;99.90
53146;DHT22;39042;53.150;5.898;2023-06-10T01:34:23;14.70;99.90
53146;DHT22;39042;53.150;5.898;2023-06-10T01:36:50;14.70;99.90
53146;DHT22;39042;53.150;5.898;2023-06-10T01:39:18;14.60;99.90
53146;DHT22;39042;53.150;5.898;2023-06-10T01:41:47;14.60;99.90
53146;DHT22;39042;53.150;5.898;2023-06-10T01:44:18;14.60;99.90
53146;DHT22;39042;53.150;5.898;2023-06-10T01:46:45;14.50;99.90
53146;DHT22;39042;53.150;5.898;2023-06-10T01:49:11;14.50;99.90
53146;DHT22;39042;53.150;5.898;2023-06-10T01:51:37;14.40;99.90
53146;DHT22;39042;53.150;5.898;2023-06-10T01:54:03;14.40;99.90
53146;DHT22;39042;53.150;5.898;2023-06-10T01:56:28;14.40;99.90
53146;DHT22;39042;53.150;5.898;2023-06-10T01:58:54;14.40;99.90
53146;DHT22;39042;53.150;5.898;2023-06-10T02:01:25;14.40;99.90
53146;DHT22;39042;53.150;5.898;2023-06-10T02:03:51;14.40;99.90
53146;DHT22;39042;53.150;5.898;2023-06-10T02:06:17;14.40;99.90
53146;DHT22;39042;53.150;5.898;2023-06-10T02:08:43;14.40;99.90
53146;DHT22;39042;53.150;5.898;2023-06-10T02:11:09;14.40;99.90
53146;DHT22;39042;53.150;5.898;2023-06-10T02:13:34;14.40;99.90
53146;DHT22;39042;53.150;5.898;2023-06-10T02:16:00;14.40;99.90
53146;DHT22;39042;53.150;5.898;2023-06-10T02:18:28;14.30;99.90
53146;DHT22;39042;53.150;5.898;2023-06-10T02:20:54;14.40;99.90
53146;DHT22;39042;53.150;5.898;2023-06-10T02:23:21;14.30;99.90
53146;DHT22;39042;53.150;5.898;2023-06-10T02:25:47;14.30;99.90
53146;DHT22;39042;53.150;5.898;2023-06-10T02:28:13;14.30;99.90
53146;DHT22;39042;53.150;5.898;2023-06-10T02:30:41;14.30;99.90
53146;DHT22;39042;53.150;5.898;2023-06-10T02:33:07;14.30;99.90
53146;DHT22;39042;53.150;5.898;2023-06-10T02:35:40;14.30;99.90
53146;DHT22;39042;53.150;5.898;2023-06-10T02:38:06;14.30;99.90
53146;DHT22;39042;53.150;5.898;2023-06-10T02:40:34;14.30;99.90
53146;DHT22;39042;53.150;5.898;2023-06-10T02:43:00;14.30;99.90
53146;DHT22;39042;53.150;5.898;2023-06-10T02:45:26;14.30;99.90
53146;DHT22;39042;53.150;5.898;2023-06-10T02:47:53;14.30;99.90
53146;DHT22;39042;53.150;5.898;2023-06-10T02:50:19;14.30;99.90
53146;DHT22;39042;53.150;5.898;2023-06-10T02:53:02;14.30;99.90
53146;DHT22;39042;53.150;5.898;2023-06-10T02:55:28;14.30;99.90
53146;DHT22;39042;53.150;5.898;2023-06-10T02:57:59;14.20;99.90
53146;DHT22;39042;53.150;5.898;2023-06-10T03:00:26;14.20;99.90
53146;DHT22;39042;53.150;5.898;2023-06-10T03:02:53;14.20;99.90
53146;DHT22;39042;53.150;5.898;2023-06-10T03:05:27;14.10;99.90
53146;DHT22;39042;53.150;5.898;2023-06-10T03:07:55;14.10;99.90
53146;DHT22;39042;53.150;5.898;2023-06-10T03:10:22;14.10;99.90
53146;DHT22;39042;53.150;5.898;2023-06-10T03:12:48;14.00;99.90
53146;DHT22;39042;53.150;5.898;2023-06-10T03:15:14;14.00;99.90
53146;DHT22;39042;53.150;5.898;2023-06-10T03:17:41;14.00;99.90
53146;DHT22;39042;53.150;5.898;2023-06-10T03:20:08;13.90;99.90
53146;DHT22;39042;53.150;5.898;2023-06-10T03:22:36;13.90;99.90
53146;DHT22;39042;53.150;5.898;2023-06-10T03:25:08;13.90;99.90
53146;DHT22;39042;53.150;5.898;2023-06-10T03:27:42;13.90;99.90
53146;DHT22;39042;53.150;5.898;2023-06-10T03:30:09;13.90;99.90
53146;DHT22;39042;53.150;5.898;2023-06-10T03:32:37;13.90;99.90
53146;DHT22;39042;53.150;5.898;2023-06-10T03:35:05;13.90;99.90
53146;DHT22;39042;53.150;5.898;2023-06-10T03:37:33;13.90;99.90
53146;DHT22;39042;53.150;5.898;2023-06-10T03:39:59;13.90;99.90
53146;DHT22;39042;53.150;5.898;2023-06-10T03:42:25;14.00;99.90
53146;DHT22;39042;53.150;5.898;2023-06-10T03:44:51;14.30;99.90
53146;DHT22;39042;53.150;5.898;2023-06-10T03:47:18;14.70;99.90
53146;DHT22;39042;53.150;5.898;2023-06-10T03:49:44;15.10;99.90
53146;DHT22;39042;53.150;5.898;2023-06-10T03:52:11;15.50;99.90
53146;DHT22;39042;53.150;5.898;2023-06-10T03:54:37;15.90;99.90
53146;DHT22;39042;53.150;5.898;2023-06-10T03:57:03;16.20;99.90
53146;DHT22;39042;53.150;5.898;2023-06-10T03:59:30;16.60;99.90
53146;DHT22;39042;53.150;5.898;2023-06-10T04:01:55;16.90;99.90
53146;DHT22;39042;53.150;5.898;2023-06-10T04:04:23;17.20;99.90
53146;DHT22;39042;53.150;5.898;2023-06-10T04:06:48;17.40;99.90
53146;DHT22;39042;53.150;5.898;2023-06-10T04:09:15;17.50;99.90
53146;DHT22;39042;53.150;5.898;2023-06-10T04:11:41;17.60;99.90
53146;DHT22;39042;53.150;5.898;2023-06-10T04:14:08;17.70;99.90
53146;DHT22;39042;53.150;5.898;2023-06-10T04:16:34;17.90;99.90
53146;DHT22;39042;53.150;5.898;2023-06-10T04:19:01;18.00;99.90
53146;DHT22;39042;53.150;5.898;2023-06-10T04:21:28;18.10;99.90
53146;DHT22;39042;53.150;5.898;2023-06-10T04:23:53;18.10;99.90
53146;DHT22;39042;53.150;5.898;2023-06-10T04:26:19;18.30;99.90
53146;DHT22;39042;53.150;5.898;2023-06-10T04:28:45;18.40;99.90
53146;DHT22;39042;53.150;5.898;2023-06-10T04:31:12;18.50;99.90
53146;DHT22;39042;53.150;5.898;2023-06-10T04:33:38;18.60;99.90
53146;DHT22;39042;53.150;5.898;2023-06-10T04:36:05;18.70;99.90
53146;DHT22;39042;53.150;5.898;2023-06-10T04:38:33;18.80;99.90
53146;DHT22;39042;53.150;5.898;2023-06-10T04:41:00;18.90;99.90
53146;DHT22;39042;53.150;5.898;2023-06-10T04:43:29;18.70;99.90
53146;DHT22;39042;53.150;5.898;2023-06-10T04:45:58;18.40;99.90
53146;DHT22;39042;53.150;5.898;2023-06-10T04:48:23;18.00;99.90
53146;DHT22;39042;53.150;5.898;2023-06-10T04:50:50;17.70;99.90
53146;DHT22;39042;53.150;5.898;2023-06-10T04:53:17;17.50;99.90
53146;DHT22;39042;53.150;5.898;2023-06-10T04:55:45;17.20;99.90
53146;DHT22;39042;53.150;5.898;2023-06-10T04:58:12;17.00;99.90
53146;DHT22;39042;53.150;5.898;2023-06-10T05:00:38;16.90;99.90
53146;DHT22;39042;53.150;5.898;2023-06-10T05:03:03;16.90;99.90
53146;DHT22;39042;53.150;5.898;2023-06-10T05:05:29;16.80;99.90
53146;DHT22;39042;53.150;5.898;2023-06-10T05:07:55;16.80;99.90
53146;DHT22;39042;53.150;5.898;2023-06-10T05:10:21;16.70;99.90
53146;DHT22;39042;53.150;5.898;2023-06-10T05:12:47;16.70;99.90
53146;DHT22;39042;53.150;5.898;2023-06-10T05:15:12;16.60;99.90
53146;DHT22;39042;53.150;5.898;2023-06-10T05:17:38;16.60;99.90
53146;DHT22;39042;53.150;5.898;2023-06-10T05:20:04;16.60;99.90
53146;DHT22;39042;53.150;5.898;2023-06-10T05:22:31;16.60;99.90
53146;DHT22;39042;53.150;5.898;2023-06-10T05:24:57;16.60;99.90
53146;DHT22;39042;53.150;5.898;2023-06-10T05:27:23;16.60;99.90
53146;DHT22;39042;53.150;5.898;2023-06-10T05:29:49;16.50;99.90
53146;DHT22;39042;53.150;5.898;2023-06-10T05:32:17;16.50;99.90
53146;DHT22;39042;53.150;5.898;2023-06-10T05:34:43;16.60;99.90
53146;DHT22;39042;53.150;5.898;2023-06-10T05:37:09;16.60;99.90
53146;DHT22;39042;53.150;5.898;2023-06-10T05:39:35;16.60;99.90
53146;DHT22;39042;53.150;5.898;2023-06-10T05:42:05;16.60;99.90
53146;DHT22;39042;53.150;5.898;2023-06-10T05:44:32;16.60;99.90
53146;DHT22;39042;53.150;5.898;2023-06-10T05:46:58;16.70;99.90
53146;DHT22;39042;53.150;5.898;2023-06-10T05:49:24;16.70;99.90
53146;DHT22;39042;53.150;5.898;2023-06-10T05:51:50;16.70;99.90
53146;DHT22;39042;53.150;5.898;2023-06-10T05:54:18;16.80;99.90
53146;DHT22;39042;53.150;5.898;2023-06-10T05:56:44;16.90;99.90
53146;DHT22;39042;53.150;5.898;2023-06-10T05:59:10;17.10;99.90
53146;DHT22;39042;53.150;5.898;2023-06-10T06:01:36;17.10;99.90
53146;DHT22;39042;53.150;5.898;2023-06-10T06:04:02;17.10;99.90
53146;DHT22;39042;53.150;5.898;2023-06-10T06:06:28;17.20;99.90
53146;DHT22;39042;53.150;5.898;2023-06-10T06:08:53;17.20;99.90
53146;DHT22;39042;53.150;5.898;2023-06-10T06:11:19;17.30;99.90
53146;DHT22;39042;53.150;5.898;2023-06-10T06:13:45;17.40;99.90
53146;DHT22;39042;53.150;5.898;2023-06-10T06:16:13;17.50;99.90
53146;DHT22;39042;53.150;5.898;2023-06-10T06:18:39;17.50;99.90
53146;DHT22;39042;53.150;5.898;2023-06-10T06:21:05;17.50;99.90
53146;DHT22;39042;53.150;5.898;2023-06-10T06:23:31;17.60;99.90
53146;DHT22;39042;53.150;5.898;2023-06-10T06:25:57;17.60;99.90
53146;DHT22;39042;53.150;5.898;2023-06-10T06:28:22;17.70;99.90
53146;DHT22;39042;53.150;5.898;2023-06-10T06:30:48;17.80;99.90
53146;DHT22;39042;53.150;5.898;2023-06-10T06:33:14;17.80;99.90
53146;DHT22;39042;53.150;5.898;2023-06-10T06:35:40;17.80;99.90
53146;DHT22;39042;53.150;5.898;2023-06-10T06:38:06;17.90;99.90
53146;DHT22;39042;53.150;5.898;2023-06-10T06:40:35;18.00;99.90
53146;DHT22;39042;53.150;5.898;2023-06-10T06:43:00;18.00;99.90
53146;DHT22;39042;53.150;5.898;2023-06-10T06:45:42;18.10;99.90
53146;DHT22;39042;53.150;5.898;2023-06-10T06:48:08;18.10;99.90
53146;DHT22;39042;53.150;5.898;2023-06-10T06:50:33;18.20;99.90
53146;DHT22;39042;53.150;5.898;2023-06-10T06:52:59;18.20;99.90
53146;DHT22;39042;53.150;5.898;2023-06-10T06:55:25;18.30;99.90
53146;DHT22;39042;53.150;5.898;2023-06-10T06:57:51;18.40;99.90
53146;DHT22;39042;53.150;5.898;2023-06-10T07:00:17;18.50;99.90
53146;DHT22;39042;53.150;5.898;2023-06-10T07:02:43;18.50;99.90
53146;DHT22;39042;53.150;5.898;2023-06-10T07:05:09;18.60;99.90
53146;DHT22;39042;53.150;5.898;2023-06-10T07:07:35;18.70;99.90
53146;DHT22;39042;53.150;5.898;2023-06-10T07:10:01;18.70;99.90
53146;DHT22;39042;53.150;5.898;2023-06-10T07:12:26;18.90;99.90
53146;DHT22;39042;53.150;5.898;2023-06-10T07:14:52;18.90;99.90
53146;DHT22;39042;53.150;5.898;2023-06-10T07:17:18;19.00;99.90
53146;DHT22;39042;53.150;5.898;2023-06-10T07:19:45;19.00;99.90
53146;DHT22;39042;53.150;5.898;2023-06-10T07:22:11;19.10;99.90
53146;DHT22;39042;53.150;5.898;2023-06-10T07:24:37;19.10;99.90
53146;DHT22;39042;53.150;5.898;2023-06-10T07:27:03;19.10;99.90
53146;DHT22;39042;53.150;5.898;2023-06-10T07:29:29;19.10;99.90
53146;DHT22;39042;53.150;5.898;2023-06-10T07:31:55;19.10;99.90
53146;DHT22;39042;53.150;5.898;2023-06-10T07:34:21;19.20;99.90
53146;DHT22;39042;53.150;5.898;2023-06-10T07:36:46;19.20;99.90
53146;DHT22;39042;53.150;5.898;2023-06-10T07:39:12;19.20;99.90
53146;DHT22;39042;53.150;5.898;2023-06-10T07:41:38;19.30;99.90
53146;DHT22;39042;53.150;5.898;2023-06-10T07:44:04;19.40;99.90
53146;DHT22;39042;53.150;5.898;2023-06-10T07:46:30;19.50;99.90
53146;DHT22;39042;53.150;5.898;2023-06-10T07:48:56;19.60;99.90
53146;DHT22;39042;53.150;5.898;2023-06-10T07:51:22;19.70;99.90
53146;DHT22;39042;53.150;5.898;2023-06-10T07:53:48;19.70;99.90
53146;DHT22;39042;53.150;5.898;2023-06-10T07:56:14;19.80;99.90
53146;DHT22;39042;53.150;5.898;2023-06-10T07:58:39;19.90;99.90
53146;DHT22;39042;53.150;5.898;2023-06-10T08:01:05;20.00;99.90
53146;DHT22;39042;53.150;5.898;2023-06-10T08:03:32;20.00;99.90
53146;DHT22;39042;53.150;5.898;2023-06-10T08:05:57;20.10;99.90
53146;DHT22;39042;53.150;5.898;2023-06-10T08:08:23;20.20;99.90
53146;DHT22;39042;53.150;5.898;2023-06-10T08:10:49;20.20;99.90
53146;DHT22;39042;53.150;5.898;2023-06-10T08:13:16;20.20;99.90
53146;DHT22;39042;53.150;5.898;2023-06-10T08:15:42;20.30;99.90
53146;DHT22;39042;53.150;5.898;2023-06-10T08:18:08;20.30;99.90
53146;DHT22;39042;53.150;5.898;2023-06-10T08:20:34;20.50;99.90
53146;DHT22;39042;53.150;5.898;2023-06-10T08:22:59;20.60;99.90
53146;DHT22;39042;53.150;5.898;2023-06-10T08:25:25;20.60;99.90
53146;DHT22;39042;53.150;5.898;2023-06-10T08:27:51;20.60;99.90
53146;DHT22;39042;53.150;5.898;2023-06-10T08:30:17;20.70;99.90
53146;DHT22;39042;53.150;5.898;2023-06-10T08:32:43;20.80;99.90
53146;DHT22;39042;53.150;5.898;2023-06-10T08:35:09;20.90;99.90
53146;DHT22;39042;53.150;5.898;2023-06-10T08:37:35;20.90;99.90
53146;DHT22;39042;53.150;5.898;2023-06-10T08:40:01;20.90;99.90
53146;DHT22;39042;53.150;5.898;2023-06-10T08:42:34;21.10;99.90
53146;DHT22;39042;53.150;5.898;2023-06-10T08:45:02;21.20;99.90
53146;DHT22;39042;53.150;5.898;2023-06-10T08:47:30;21.30;99.90
53146;DHT22;39042;53.150;5.898;2023-06-10T08:50:03;21.40;99.90
53146;DHT22;39042;53.150;5.898;2023-06-10T08:52:36;21.30;99.90
53146;DHT22;39042;53.150;5.898;2023-06-10T08:55:12;21.40;99.90
53146;DHT22;39042;53.150;5.898;2023-06-10T08:57:43;21.40;99.90
53146;DHT22;39042;53.150;5.898;2023-06-10T09:00:12;21.40;99.90
53146;DHT22;39042;53.150;5.898;2023-06-10T09:02:38;21.40;99.90
53146;DHT22;39042;53.150;5.898;2023-06-10T09:05:05;21.50;99.90
53146;DHT22;39042;53.150;5.898;2023-06-10T09:07:31;21.60;99.90
53146;DHT22;39042;53.150;5.898;2023-06-10T09:09:57;21.60;99.90
53146;DHT22;39042;53.150;5.898;2023-06-10T09:12:24;21.70;99.90
53146;DHT22;39042;53.150;5.898;2023-06-10T09:14:50;21.60;99.90
53146;DHT22;39042;53.150;5.898;2023-06-10T09:17:16;21.70;99.90
53146;DHT22;39042;53.150;5.898;2023-06-10T09:19:44;21.70;99.90
53146;DHT22;39042;53.150;5.898;2023-06-10T09:22:10;21.80;99.90
53146;DHT22;39042;53.150;5.898;2023-06-10T09:24:37;21.90;99.90
53146;DHT22;39042;53.150;5.898;2023-06-10T09:27:06;22.00;99.90
53146;DHT22;39042;53.150;5.898;2023-06-10T09:29:51;22.00;99.90
53146;DHT22;39042;53.150;5.898;2023-06-10T09:32:18;22.00;99.90
53146;DHT22;39042;53.150;5.898;2023-06-10T09:34:45;22.00;99.90
53146;DHT22;39042;53.150;5.898;2023-06-10T09:37:11;22.10;99.90
53146;DHT22;39042;53.150;5.898;2023-06-10T09:39:40;22.20;99.90
53146;DHT22;39042;53.150;5.898;2023-06-10T09:42:16;22.20;99.90
53146;DHT22;39042;53.150;5.898;2023-06-10T09:44:49;22.20;99.90
53146;DHT22;39042;53.150;5.898;2023-06-10T09:47:23;22.30;99.90
53146;DHT22;39042;53.150;5.898;2023-06-10T09:49:49;22.40;99.90
53146;DHT22;39042;53.150;5.898;2023-06-10T09:52:23;22.40;99.90
53146;DHT22;39042;53.150;5.898;2023-06-10T09:54:54;22.40;99.90
53146;DHT22;39042;53.150;5.898;2023-06-10T09:57:21;22.50;99.90
53146;DHT22;39042;53.150;5.898;2023-06-10T09:59:47;22.60;99.90
53146;DHT22;39042;53.150;5.898;2023-06-10T10:02:16;22.70;99.90
53146;DHT22;39042;53.150;5.898;2023-06-10T10:04:46;22.70;99.90
53146;DHT22;39042;53.150;5.898;2023-06-10T10:07:12;22.70;99.90
53146;DHT22;39042;53.150;5.898;2023-06-10T10:09:39;22.70;99.90
53146;DHT22;39042;53.150;5.898;2023-06-10T10:12:15;22.80;99.90
53146;DHT22;39042;53.150;5.898;2023-06-10T10:14:47;22.90;98.10
53146;DHT22;39042;53.150;5.898;2023-06-10T10:17:14;22.90;98.70
53146;DHT22;39042;53.150;5.898;2023-06-10T10:19:47;23.00;98.90
53146;DHT22;39042;53.150;5.898;2023-06-10T10:22:19;23.00;99.10
53146;DHT22;39042;53.150;5.898;2023-06-10T10:24:50;23.00;99.50
53146;DHT22;39042;53.150;5.898;2023-06-10T10:27:51;23.00;99.50
53146;DHT22;39042;53.150;5.898;2023-06-10T10:30:17;23.00;99.60
53146;DHT22;39042;53.150;5.898;2023-06-10T10:35:31;23.00;99.30
53146;DHT22;39042;53.150;5.898;2023-06-10T10:37:58;23.00;99.60
53146;DHT22;39042;53.150;5.898;2023-06-10T10:40:26;23.10;99.80
53146;DHT22;39042;53.150;5.898;2023-06-10T10:42:56;23.10;99.10
53146;DHT22;39042;53.150;5.898;2023-06-10T10:45:22;23.20;98.90
53146;DHT22;39042;53.150;5.898;2023-06-10T10:47:54;23.20;99.30
53146;DHT22;39042;53.150;5.898;2023-06-10T10:50:22;23.20;98.80
53146;DHT22;39042;53.150;5.898;2023-06-10T10:53:04;23.30;98.40
53146;DHT22;39042;53.150;5.898;2023-06-10T10:55:31;23.30;98.10
53146;DHT22;39042;53.150;5.898;2023-06-10T10:58:07;23.30;98.40
53146;DHT22;39042;53.150;5.898;2023-06-10T11:00:35;23.30;98.20
53146;DHT22;39042;53.150;5.898;2023-06-10T11:03:06;23.40;98.80
53146;DHT22;39042;53.150;5.898;2023-06-10T11:05:37;23.40;97.90
53146;DHT22;39042;53.150;5.898;2023-06-10T11:08:08;23.40;98.00
53146;DHT22;39042;53.150;5.898;2023-06-10T11:10:40;23.50;97.90
53146;DHT22;39042;53.150;5.898;2023-06-10T11:13:13;23.60;97.70
53146;DHT22;39042;53.150;5.898;2023-06-10T11:15:44;23.60;97.70
53146;DHT22;39042;53.150;5.898;2023-06-10T11:18:12;23.60;97.60
53146;DHT22;39042;53.150;5.898;2023-06-10T11:21:05;23.60;97.30
53146;DHT22;39042;53.150;5.898;2023-06-10T11:31:24;23.90;96.10
53146;DHT22;39042;53.150;5.898;2023-06-10T11:33:54;23.90;95.20
53146;DHT22;39042;53.150;5.898;2023-06-10T11:36:21;23.90;94.50
53146;DHT22;39042;53.150;5.898;2023-06-10T11:38:47;23.90;95.30
53146;DHT22;39042;53.150;5.898;2023-06-10T11:41:17;24.00;94.90
53146;DHT22;39042;53.150;5.898;2023-06-10T11:43:44;24.00;94.10
53146;DHT22;39042;53.150;5.898;2023-06-10T11:46:11;24.10;93.90
53146;DHT22;39042;53.150;5.898;2023-06-10T11:48:37;24.20;93.20
53146;DHT22;39042;53.150;5.898;2023-06-10T11:51:09;24.30;93.60
53146;DHT22;39042;53.150;5.898;2023-06-10T11:53:35;24.30;93.60
53146;DHT22;39042;53.150;5.898;2023-06-10T11:56:01;24.30;93.60
53146;DHT22;39042;53.150;5.898;2023-06-10T11:58:27;24.40;92.90
53146;DHT22;39042;53.150;5.898;2023-06-10T12:00:54;24.50;93.00
53146;DHT22;39042;53.150;5.898;2023-06-10T12:03:22;24.40;92.80
53146;DHT22;39042;53.150;5.898;2023-06-10T12:06:02;24.50;92.50
53146;DHT22;39042;53.150;5.898;2023-06-10T12:08:29;24.60;92.50
53146;DHT22;39042;53.150;5.898;2023-06-10T12:10:55;24.60;92.70
53146;DHT22;39042;53.150;5.898;2023-06-10T12:13:21;24.70;93.20
53146;DHT22;39042;53.150;5.898;2023-06-10T12:15:48;24.70;92.70
53146;DHT22;39042;53.150;5.898;2023-06-10T12:18:18;24.80;92.10
53146;DHT22;39042;53.150;5.898;2023-06-10T12:20:45;24.80;91.40
53146;DHT22;39042;53.150;5.898;2023-06-10T12:23:12;24.90;92.70
53146;DHT22;39042;53.150;5.898;2023-06-10T12:25:39;24.90;92.70
53146;DHT22;39042;53.150;5.898;2023-06-10T12:28:05;24.90;92.40
53146;DHT22;39042;53.150;5.898;2023-06-10T12:30:34;25.00;92.70
53146;DHT22;39042;53.150;5.898;2023-06-10T12:33:00;25.00;91.90
53146;DHT22;39042;53.150;5.898;2023-06-10T12:35:27;25.00;91.70
53146;DHT22;39042;53.150;5.898;2023-06-10T12:38:03;25.00;91.60
53146;DHT22;39042;53.150;5.898;2023-06-10T12:40:33;25.00;91.50
53146;DHT22;39042;53.150;5.898;2023-06-10T12:43:01;25.10;91.20
53146;DHT22;39042;53.150;5.898;2023-06-10T12:45:28;25.10;91.70
53146;DHT22;39042;53.150;5.898;2023-06-10T12:48:05;25.20;90.30
53146;DHT22;39042;53.150;5.898;2023-06-10T12:50:32;25.10;93.70
53146;DHT22;39042;53.150;5.898;2023-06-10T12:52:59;25.10;94.60
53146;DHT22;39042;53.150;5.898;2023-06-10T12:55:25;25.10;92.30
53146;DHT22;39042;53.150;5.898;2023-06-10T12:57:51;25.10;95.90
53146;DHT22;39042;53.150;5.898;2023-06-10T13:00:18;25.30;98.10
53146;DHT22;39042;53.150;5.898;2023-06-10T13:02:44;25.20;99.20
53146;DHT22;39042;53.150;5.898;2023-06-10T13:05:09;25.10;99.90
53146;DHT22;39042;53.150;5.898;2023-06-10T13:07:36;24.90;99.90
53146;DHT22;39042;53.150;5.898;2023-06-10T13:10:01;24.80;99.90
53146;DHT22;39042;53.150;5.898;2023-06-10T13:12:28;24.80;99.90
53146;DHT22;39042;53.150;5.898;2023-06-10T13:14:54;24.80;99.90
53146;DHT22;39042;53.150;5.898;2023-06-10T13:17:20;24.70;99.90
53146;DHT22;39042;53.150;5.898;2023-06-10T13:19:46;24.60;99.90
53146;DHT22;39042;53.150;5.898;2023-06-10T13:22:13;24.60;99.90
53146;DHT22;39042;53.150;5.898;2023-06-10T13:24:39;24.60;99.90
53146;DHT22;39042;53.150;5.898;2023-06-10T13:27:06;24.60;99.90
53146;DHT22;39042;53.150;5.898;2023-06-10T13:29:32;24.40;99.90
53146;DHT22;39042;53.150;5.898;2023-06-10T13:31:58;24.30;99.90
53146;DHT22;39042;53.150;5.898;2023-06-10T13:34:24;24.20;99.90
53146;DHT22;39042;53.150;5.898;2023-06-10T13:36:49;24.30;99.90
53146;DHT22;39042;53.150;5.898;2023-06-10T13:39:15;24.20;99.90
53146;DHT22;39042;53.150;5.898;2023-06-10T13:41:41;24.20;99.90
53146;DHT22;39042;53.150;5.898;2023-06-10T13:44:07;24.20;99.90
53146;DHT22;39042;53.150;5.898;2023-06-10T13:46:33;24.30;99.90
53146;DHT22;39042;53.150;5.898;2023-06-10T13:48:59;24.20;99.90
53146;DHT22;39042;53.150;5.898;2023-06-10T13:51:25;24.20;99.90
53146;DHT22;39042;53.150;5.898;2023-06-10T13:53:50;24.20;99.90
53146;DHT22;39042;53.150;5.898;2023-06-10T13:56:18;24.20;99.90
53146;DHT22;39042;53.150;5.898;2023-06-10T13:58:43;24.30;99.90
53146;DHT22;39042;53.150;5.898;2023-06-10T14:01:10;24.30;99.90
53146;DHT22;39042;53.150;5.898;2023-06-10T14:03:36;24.40;99.90
53146;DHT22;39042;53.150;5.898;2023-06-10T14:06:02;24.40;99.90
53146;DHT22;39042;53.150;5.898;2023-06-10T14:08:28;24.40;99.90
53146;DHT22;39042;53.150;5.898;2023-06-10T14:10:55;24.40;99.90
53146;DHT22;39042;53.150;5.898;2023-06-10T14:13:21;24.40;99.90
53146;DHT22;39042;53.150;5.898;2023-06-10T14:15:47;24.40;99.90
53146;DHT22;39042;53.150;5.898;2023-06-10T14:18:12;24.30;99.90
53146;DHT22;39042;53.150;5.898;2023-06-10T14:20:38;24.40;99.90
53146;DHT22;39042;53.150;5.898;2023-06-10T14:23:04;24.50;99.90
53146;DHT22;39042;53.150;5.898;2023-06-10T14:25:30;24.50;99.90
53146;DHT22;39042;53.150;5.898;2023-06-10T14:27:55;24.50;99.90
53146;DHT22;39042;53.150;5.898;2023-06-10T14:30:21;24.50;99.90
53146;DHT22;39042;53.150;5.898;2023-06-10T14:32:47;24.50;99.90
53146;DHT22;39042;53.150;5.898;2023-06-10T14:35:13;24.40;99.90
53146;DHT22;39042;53.150;5.898;2023-06-10T14:37:39;24.50;99.90
53146;DHT22;39042;53.150;5.898;2023-06-10T14:40:05;24.50;99.90
53146;DHT22;39042;53.150;5.898;2023-06-10T14:42:31;24.50;99.90
53146;DHT22;39042;53.150;5.898;2023-06-10T14:45:00;24.50;99.90
53146;DHT22;39042;53.150;5.898;2023-06-10T14:47:26;24.40;99.90
53146;DHT22;39042;53.150;5.898;2023-06-10T14:49:52;24.50;99.90
53146;DHT22;39042;53.150;5.898;2023-06-10T14:52:17;24.60;99.90
53146;DHT22;39042;53.150;5.898;2023-06-10T14:54:43;24.60;99.90
53146;DHT22;39042;53.150;5.898;2023-06-10T14:57:09;24.60;99.90
53146;DHT22;39042;53.150;5.898;2023-06-10T14:59:36;24.50;99.90
53146;DHT22;39042;53.150;5.898;2023-06-10T15:02:02;24.60;99.90
53146;DHT22;39042;53.150;5.898;2023-06-10T15:04:28;24.50;99.90
53146;DHT22;39042;53.150;5.898;2023-06-10T15:06:54;24.50;99.90
53146;DHT22;39042;53.150;5.898;2023-06-10T15:09:20;24.40;99.90
53146;DHT22;39042;53.150;5.898;2023-06-10T15:11:46;24.50;99.90
53146;DHT22;39042;53.150;5.898;2023-06-10T15:14:11;24.50;99.90
53146;DHT22;39042;53.150;5.898;2023-06-10T15:16:37;24.50;99.90
53146;DHT22;39042;53.150;5.898;2023-06-10T15:19:03;24.60;99.90
53146;DHT22;39042;53.150;5.898;2023-06-10T15:21:32;24.60;99.90
53146;DHT22;39042;53.150;5.898;2023-06-10T15:23:58;24.70;99.90
53146;DHT22;39042;53.150;5.898;2023-06-10T15:26:23;24.80;99.90
53146;DHT22;39042;53.150;5.898;2023-06-10T15:28:49;24.80;99.90
53146;DHT22;39042;53.150;5.898;2023-06-10T15:31:15;24.90;99.90
53146;DHT22;39042;53.150;5.898;2023-06-10T15:33:41;24.90;99.90
53146;DHT22;39042;53.150;5.898;2023-06-10T15:36:07;25.00;99.90
53146;DHT22;39042;53.150;5.898;2023-06-10T15:38:32;24.90;99.90
53146;DHT22;39042;53.150;5.898;2023-06-10T15:40:58;25.00;99.90
53146;DHT22;39042;53.150;5.898;2023-06-10T15:43:24;24.90;99.90